createdAt,value
2023-03-21T00:01:00.280Z,6.70
2023-03-21T00:03:28.874Z,6.57
2023-03-21T00:05:57.229Z,6.78
2023-03-21T00:08:27.006Z,8.13
2023-03-21T00:10:59.398Z,5.70
2023-03-21T00:13:32.524Z,6.60
2023-03-21T00:16:16.433Z,5.78
2023-03-21T00:18:52.596Z,6.18
2023-03-21T00:24:16.604Z,5.82
2023-03-21T00:26:45.042Z,4.80
2023-03-21T00:29:13.102Z,6.05
2023-03-21T00:31:42.584Z,5.70
2023-03-21T00:36:43.730Z,5.55
2023-03-21T00:39:12.128Z,6.60
2023-03-21T00:41:43.126Z,5.88
2023-03-21T00:44:13.847Z,7.03
2023-03-21T00:46:54.464Z,5.82
2023-03-21T00:49:33.766Z,6.40
2023-03-21T00:52:15.797Z,5.82
2023-03-21T00:54:46.511Z,5.57
2023-03-21T00:57:14.719Z,4.63
2023-03-21T00:59:42.878Z,5.78
2023-03-21T01:02:22.718Z,5.72
2023-03-21T01:04:51.051Z,5.50
2023-03-21T01:07:19.162Z,4.95
2023-03-21T01:09:47.508Z,5.93
2023-03-21T01:12:15.508Z,6.20
2023-03-21T01:14:43.641Z,4.28
2023-03-21T01:17:13.273Z,4.60
2023-03-21T01:19:51.587Z,5.50
2023-03-21T01:22:20.279Z,4.63
2023-03-21T01:25:02.931Z,5.95
2023-03-21T01:27:36.500Z,4.90
2023-03-21T01:30:11.303Z,5.55
2023-03-21T01:32:46.978Z,5.13
2023-03-21T01:35:15.149Z,5.10
2023-03-21T01:37:43.603Z,4.75
2023-03-21T01:40:17.938Z,4.28
2023-03-21T01:42:46.094Z,5.55
2023-03-21T01:45:47.281Z,3.92
2023-03-21T01:48:17.659Z,5.40
2023-03-21T01:50:47.248Z,5.18
2023-03-21T01:53:16.255Z,4.22
2023-03-21T01:55:44.646Z,4.32
2023-03-21T01:58:14.181Z,4.88
2023-03-21T02:00:43.806Z,4.40
2023-03-21T02:03:26.201Z,4.28
2023-03-21T02:06:02.224Z,3.88
2023-03-21T02:11:09.962Z,3.83
2023-03-21T02:13:38.347Z,4.32
2023-03-21T02:16:13.945Z,4.82
2023-03-21T02:18:51.620Z,4.70
2023-03-21T02:21:53.685Z,4.15
2023-03-21T02:25:21.345Z,4.45
2023-03-21T02:27:56.088Z,3.72
2023-03-21T02:31:04.014Z,4.80
2023-03-21T02:33:54.264Z,4.53
2023-03-21T02:36:35.249Z,4.03
2023-03-21T02:39:13.097Z,4.00
2023-03-21T02:41:49.466Z,5.72
2023-03-21T02:44:24.469Z,4.20
2023-03-21T02:47:05.264Z,4.47
2023-03-21T02:49:43.032Z,4.85
2023-03-21T02:52:25.573Z,3.78
2023-03-21T02:55:04.884Z,3.50
2023-03-21T02:57:42.489Z,4.20
2023-03-21T03:00:18.035Z,4.53
2023-03-21T03:02:48.823Z,4.75
2023-03-21T03:05:22.150Z,3.25
2023-03-21T03:08:18.770Z,3.80
2023-03-21T03:11:01.705Z,4.82
2023-03-21T03:13:42.795Z,3.97
2023-03-21T03:16:20.335Z,4.10
2023-03-21T03:18:54.143Z,4.50
2023-03-21T03:21:26.532Z,3.70
2023-03-21T03:23:58.548Z,3.92
2023-03-21T03:26:32.377Z,4.30
2023-03-21T03:29:05.202Z,4.10
2023-03-21T03:31:38.092Z,4.55
2023-03-21T03:36:41.033Z,4.65
2023-03-21T03:39:12.294Z,4.03
2023-03-21T03:42:12.693Z,3.30
2023-03-21T03:44:35.437Z,4.00
2023-03-21T03:47:07.691Z,4.20
2023-03-21T03:49:40.695Z,3.60
2023-03-21T03:54:43.710Z,4.38
2023-03-21T03:57:14.328Z,4.05
2023-03-21T03:59:44.877Z,4.20
2023-03-21T04:02:13.206Z,4.03
2023-03-21T04:04:42.219Z,4.82
2023-03-21T04:07:10.653Z,3.78
2023-03-21T04:09:44.509Z,4.25
2023-03-21T04:12:14.794Z,3.85
2023-03-21T04:14:46.072Z,3.75
2023-03-21T04:17:16.035Z,3.72
2023-03-21T04:19:45.436Z,4.00
2023-03-21T04:22:13.979Z,4.97
2023-03-21T04:24:42.749Z,3.17
2023-03-21T04:27:11.026Z,3.70
2023-03-21T04:29:40.589Z,4.45
2023-03-21T04:32:16.434Z,4.47
2023-03-21T04:34:50.152Z,4.28
2023-03-21T04:37:19.183Z,3.83
2023-03-21T04:39:47.950Z,5.03
2023-03-21T04:42:18.530Z,4.38
2023-03-21T04:44:49.208Z,4.70
2023-03-21T04:47:20.307Z,3.42
2023-03-21T04:49:49.101Z,4.72
2023-03-21T04:52:17.733Z,3.88
2023-03-21T04:54:45.890Z,4.50
2023-03-21T04:57:14.210Z,4.07
2023-03-21T04:59:42.799Z,3.33
2023-03-21T05:02:12.556Z,3.65
2023-03-21T05:04:41.191Z,3.60
2023-03-21T05:07:09.970Z,5.22
2023-03-21T05:09:38.290Z,3.55
2023-03-21T05:12:06.894Z,3.78
2023-03-21T05:14:34.915Z,4.15
2023-03-21T05:17:05.486Z,3.78
2023-03-21T05:19:40.703Z,4.10
2023-03-21T05:22:12.129Z,3.75
2023-03-21T05:24:42.001Z,3.67
2023-03-21T05:27:10.158Z,3.78
2023-03-21T05:29:38.405Z,4.03
2023-03-21T05:32:07.346Z,3.53
2023-03-21T05:34:36.807Z,4.30
2023-03-21T05:37:04.875Z,4.15
2023-03-21T05:39:32.909Z,3.55
2023-03-21T05:42:01.001Z,6.75
2023-03-21T05:44:29.136Z,4.75
2023-03-21T05:46:57.184Z,3.50
2023-03-21T05:49:25.294Z,3.30
2023-03-21T05:51:54.702Z,3.70
2023-03-21T05:54:22.768Z,3.92
2023-03-21T05:56:51.125Z,3.08
2023-03-21T05:59:19.292Z,4.22
2023-03-21T06:01:47.325Z,4.00
2023-03-21T06:04:15.637Z,3.55
2023-03-21T06:06:43.931Z,3.25
2023-03-21T06:09:13.725Z,3.60
2023-03-21T06:11:47.367Z,3.38
2023-03-21T06:14:15.974Z,3.47
2023-03-21T06:16:44.796Z,4.18
2023-03-21T06:19:13.323Z,4.47
2023-03-21T06:21:41.614Z,3.53
2023-03-21T06:24:10.323Z,3.97
2023-03-21T06:26:39.775Z,3.50
2023-03-21T06:29:08.483Z,3.65
2023-03-21T06:31:40.519Z,3.72
2023-03-21T06:34:10.664Z,4.70
2023-03-21T06:36:39.125Z,4.35
2023-03-21T06:39:08.786Z,4.30
2023-03-21T06:41:37.191Z,3.47
2023-03-21T06:44:06.650Z,3.67
2023-03-21T06:46:34.873Z,3.83
2023-03-21T06:49:02.940Z,3.85
2023-03-21T06:51:31.630Z,4.70
2023-03-21T06:54:55.260Z,4.45
2023-03-21T06:57:28.041Z,3.05
2023-03-21T07:00:38.236Z,4.32
2023-03-21T07:05:39.650Z,3.83
2023-03-21T07:08:10.279Z,3.28
2023-03-21T07:10:40.265Z,4.22
2023-03-21T07:13:08.725Z,3.78
2023-03-21T07:15:39.230Z,3.63
2023-03-21T07:18:09.492Z,3.63
2023-03-21T07:20:39.053Z,3.53
2023-03-21T07:23:07.508Z,3.90
2023-03-21T07:25:36.217Z,2.95
2023-03-21T07:28:09.016Z,3.50
2023-03-21T07:30:38.751Z,4.32
2023-03-21T07:33:07.202Z,4.78
2023-03-21T07:35:37.603Z,3.92
2023-03-21T07:38:06.574Z,3.90
2023-03-21T07:40:37.601Z,3.88
2023-03-21T07:43:05.913Z,3.20
2023-03-21T07:45:34.167Z,3.38
2023-03-21T07:48:03.614Z,3.35
2023-03-21T07:50:32.030Z,3.15
2023-03-21T07:53:00.864Z,3.67
2023-03-21T07:55:29.779Z,4.82
2023-03-21T07:57:58.169Z,2.97
2023-03-21T08:00:27.025Z,3.47
2023-03-21T08:02:59.028Z,3.47
2023-03-21T08:05:31.279Z,3.40
2023-03-21T08:07:59.369Z,3.65
2023-03-21T08:10:28.029Z,5.00
2023-03-21T08:12:56.369Z,4.28
2023-03-21T08:15:24.913Z,3.00
2023-03-21T08:17:53.595Z,3.30
2023-03-21T08:20:23.398Z,3.88
2023-03-21T08:22:53.059Z,4.07
2023-03-21T08:25:22.494Z,3.03
2023-03-21T08:27:52.333Z,3.45
2023-03-21T08:30:22.567Z,3.00
2023-03-21T08:32:51.091Z,3.80
2023-03-21T08:35:20.663Z,3.78
2023-03-21T08:37:48.872Z,3.60
2023-03-21T08:40:20.572Z,3.15
2023-03-21T08:42:48.819Z,3.45
2023-03-21T08:45:18.461Z,4.65
2023-03-21T08:47:47.230Z,3.40
2023-03-21T08:50:18.326Z,3.17
2023-03-21T08:52:46.651Z,3.05
2023-03-21T08:55:16.966Z,3.17
2023-03-21T08:57:48.025Z,3.30
2023-03-21T09:00:18.121Z,3.28
2023-03-21T09:02:48.377Z,3.67
2023-03-21T09:05:16.940Z,3.22
2023-03-21T09:07:46.089Z,3.25
2023-03-21T09:10:21.801Z,3.03
2023-03-21T09:12:53.818Z,3.47
2023-03-21T09:15:24.387Z,3.55
2023-03-21T09:17:54.579Z,3.58
2023-03-21T09:20:30.633Z,3.85
2023-03-21T09:23:01.099Z,4.63
2023-03-21T09:25:31.304Z,3.60
2023-03-21T09:28:02.235Z,2.85
2023-03-21T09:30:31.515Z,3.28
2023-03-21T09:33:00.683Z,3.45
2023-03-21T09:35:29.265Z,3.65
2023-03-21T09:37:57.538Z,3.13
2023-03-21T09:40:41.477Z,2.55
2023-03-21T09:43:25.043Z,3.03
2023-03-21T09:48:39.652Z,3.42
2023-03-21T09:51:15.889Z,3.20
2023-03-21T09:53:47.864Z,2.85
2023-03-21T09:56:17.206Z,4.15
2023-03-21T09:58:54.723Z,3.45
2023-03-21T10:01:28.473Z,3.00
2023-03-21T10:03:58.963Z,4.07
2023-03-21T10:06:30.627Z,2.53
2023-03-21T10:09:07.268Z,3.30
2023-03-21T10:11:43.414Z,2.67
2023-03-21T10:14:19.898Z,3.33
2023-03-21T10:16:50.486Z,2.80
2023-03-21T10:19:20.424Z,2.90
2023-03-21T10:22:05.957Z,2.83
2023-03-21T10:24:35.908Z,3.20
2023-03-21T10:27:05.595Z,3.47
2023-03-21T10:29:43.886Z,3.15
2023-03-21T10:32:14.361Z,3.05
2023-03-21T10:34:45.928Z,2.45
2023-03-21T10:37:15.298Z,3.25
2023-03-21T10:39:46.747Z,2.38
2023-03-21T10:42:21.464Z,2.72
2023-03-21T10:44:53.186Z,2.58
2023-03-21T10:47:25.058Z,2.33
2023-03-21T10:50:10.349Z,2.60
2023-03-21T10:52:45.871Z,2.15
2023-03-21T10:55:22.540Z,2.50
2023-03-21T10:57:57.584Z,2.35
2023-03-21T11:00:31.442Z,2.03
2023-03-21T11:02:59.886Z,2.20
2023-03-21T11:05:35.961Z,2.10
2023-03-21T11:08:07.496Z,2.63
2023-03-21T11:10:38.123Z,2.38
2023-03-21T11:13:09.997Z,2.35
2023-03-21T11:15:55.058Z,2.50
2023-03-21T11:18:25.267Z,1.98
2023-03-21T11:20:55.716Z,1.95
2023-03-21T11:23:29.897Z,2.25
2023-03-21T11:28:34.341Z,2.45
2023-03-21T11:31:05.703Z,2.50
2023-03-21T11:33:36.670Z,1.90
2023-03-21T11:36:07.231Z,2.42
2023-03-21T11:38:39.452Z,2.22
2023-03-21T11:41:08.390Z,2.08
2023-03-21T11:43:39.259Z,1.95
2023-03-21T11:46:11.480Z,2.30
2023-03-21T11:48:43.048Z,3.08
2023-03-21T11:51:24.071Z,2.63
2023-03-21T11:54:06.680Z,2.20
2023-03-21T11:56:37.414Z,1.97
2023-03-21T11:59:24.601Z,2.28
2023-03-21T12:02:12.003Z,1.80
2023-03-21T12:04:49.426Z,3.40
2023-03-21T12:07:41.508Z,1.85
2023-03-21T12:10:27.060Z,2.05
2023-03-21T12:13:03.587Z,1.90
2023-03-21T12:15:40.906Z,3.63
2023-03-21T12:18:24.475Z,1.90
2023-03-21T12:20:57.876Z,2.03
2023-03-21T12:23:44.110Z,3.40
2023-03-21T12:26:23.236Z,2.33
2023-03-21T12:29:04.636Z,2.88
2023-03-21T12:31:44.787Z,3.15
2023-03-21T12:34:28.976Z,3.00
2023-03-21T12:37:15.775Z,2.22
2023-03-21T12:39:49.012Z,2.47
2023-03-21T12:42:38.266Z,1.88
2023-03-21T12:45:15.739Z,1.65
2023-03-21T12:47:49.775Z,1.65
2023-03-21T12:50:23.429Z,1.80
2023-03-21T12:52:55.540Z,1.88
2023-03-21T12:55:26.131Z,1.15
2023-03-21T12:57:59.896Z,3.10
2023-03-21T13:00:35.269Z,2.00
2023-03-21T13:03:05.663Z,1.40
2023-03-21T13:05:40.020Z,2.45
2023-03-21T13:08:14.565Z,2.28
2023-03-21T13:10:45.696Z,2.53
2023-03-21T13:13:22.896Z,1.63
2023-03-21T13:15:56.599Z,2.45
2023-03-21T13:18:33.985Z,1.48
2023-03-21T13:21:10.717Z,1.73
2023-03-21T13:23:40.361Z,1.98
2023-03-21T13:26:11.251Z,2.10
2023-03-21T13:28:42.243Z,1.60
2023-03-21T13:31:19.628Z,1.60
2023-03-21T13:33:49.970Z,1.98
2023-03-21T13:36:25.749Z,0.80
2023-03-21T13:39:00.679Z,2.03
2023-03-21T13:41:33.438Z,1.88
2023-03-21T13:44:17.364Z,1.88
2023-03-21T13:46:54.377Z,1.85
2023-03-21T13:49:32.751Z,1.95
2023-03-21T13:52:22.078Z,1.83
2023-03-21T13:54:54.565Z,1.10
2023-03-21T13:57:38.358Z,1.45
2023-03-21T14:00:23.699Z,1.65
2023-03-21T14:02:56.061Z,1.25
2023-03-21T14:05:26.523Z,2.30
2023-03-21T14:08:06.221Z,2.20
2023-03-21T14:10:43.509Z,1.40
2023-03-21T14:13:19.851Z,1.17
2023-03-21T14:15:55.926Z,1.63
2023-03-21T14:18:52.300Z,2.15
2023-03-21T14:21:23.559Z,2.40
2023-03-21T14:24:05.223Z,1.50
2023-03-21T14:26:35.667Z,1.73
2023-03-21T14:29:09.632Z,1.63
2023-03-21T14:31:47.098Z,2.00
2023-03-21T14:34:17.125Z,1.80
2023-03-21T14:36:51.693Z,1.15
2023-03-21T14:39:27.888Z,1.33
2023-03-21T14:41:58.475Z,1.30
2023-03-21T14:44:28.448Z,2.88
2023-03-21T14:47:02.871Z,1.08
2023-03-21T14:49:32.887Z,1.27
2023-03-21T14:52:05.050Z,1.88
2023-03-21T14:54:40.562Z,1.90
2023-03-21T14:57:13.306Z,1.38
2023-03-21T14:59:42.847Z,1.73
2023-03-21T15:02:18.201Z,1.38
2023-03-21T15:04:49.351Z,1.70
2023-03-21T15:07:26.850Z,1.42
2023-03-21T15:09:58.121Z,1.13
2023-03-21T15:12:26.174Z,2.03
2023-03-21T15:14:55.576Z,1.00
2023-03-21T15:17:25.887Z,2.03
2023-03-21T15:19:54.849Z,1.63
2023-03-21T15:22:30.508Z,1.30
2023-03-21T15:25:02.843Z,2.25
2023-03-21T15:27:33.759Z,2.37
2023-03-21T15:30:02.144Z,2.05
2023-03-21T15:32:30.732Z,1.25
2023-03-21T15:35:07.532Z,1.48
2023-03-21T15:37:38.554Z,1.30
2023-03-21T15:40:22.721Z,1.40
2023-03-21T15:42:50.845Z,1.88
2023-03-21T15:45:23.835Z,2.30
2023-03-21T15:50:29.514Z,2.33
2023-03-21T15:53:01.545Z,1.58
2023-03-21T15:55:40.022Z,2.17
2023-03-21T15:58:16.315Z,2.00
2023-03-21T16:00:51.687Z,1.92
2023-03-21T16:03:25.931Z,1.67
2023-03-21T16:06:11.038Z,1.60
2023-03-21T16:08:44.782Z,1.92
2023-03-21T16:11:20.111Z,2.20
2023-03-21T16:13:48.223Z,1.75
2023-03-21T16:16:18.969Z,1.67
2023-03-21T16:18:47.270Z,1.52
2023-03-21T16:21:17.105Z,2.20
2023-03-21T16:23:45.977Z,2.08
2023-03-21T16:26:16.504Z,1.63
2023-03-21T16:28:47.976Z,2.00
2023-03-21T16:31:18.186Z,2.58
2023-03-21T16:33:46.418Z,1.60
2023-03-21T16:36:17.862Z,1.95
2023-03-21T16:38:46.447Z,2.22
2023-03-21T16:41:15.590Z,1.73
2023-03-21T16:43:44.341Z,1.85
2023-03-21T16:46:18.301Z,1.73
2023-03-21T16:48:47.961Z,1.40
2023-03-21T16:51:18.581Z,2.05
2023-03-21T16:53:47.637Z,2.42
2023-03-21T16:56:17.622Z,2.88
2023-03-21T16:58:46.412Z,2.15
2023-03-21T17:01:19.203Z,2.88
2023-03-21T17:03:48.347Z,2.50
2023-03-21T17:06:18.602Z,2.60
2023-03-21T17:08:47.490Z,2.05
2023-03-21T17:11:20.186Z,2.28
2023-03-21T17:13:49.035Z,2.23
2023-03-21T17:16:22.175Z,2.47
2023-03-21T17:18:51.544Z,2.38
2023-03-21T17:21:21.819Z,1.85
2023-03-21T17:23:50.932Z,2.22
2023-03-21T17:26:22.158Z,2.47
2023-03-21T17:28:50.612Z,2.50
2023-03-21T17:31:22.390Z,2.42
2023-03-21T17:33:51.048Z,2.20
2023-03-21T17:36:21.502Z,2.20
2023-03-21T17:38:49.963Z,2.15
2023-03-21T17:41:20.550Z,2.58
2023-03-21T17:43:48.979Z,2.67
2023-03-21T17:46:21.111Z,2.90
2023-03-21T17:48:50.523Z,2.70
2023-03-21T17:51:19.263Z,2.63
2023-03-21T17:53:49.257Z,3.97
2023-03-21T17:56:21.364Z,7.20
2023-03-21T17:58:49.930Z,5.13
2023-03-21T18:01:19.642Z,2.95
2023-03-21T18:03:47.751Z,3.88
2023-03-21T18:06:17.891Z,6.57
2023-03-21T18:08:47.087Z,3.90
2023-03-21T18:11:16.808Z,4.03
2023-03-21T18:13:45.865Z,2.95
2023-03-21T18:16:16.189Z,2.78
2023-03-21T18:18:46.686Z,2.47
2023-03-21T18:21:18.206Z,2.80
2023-03-21T18:23:48.696Z,3.22
2023-03-21T18:26:22.878Z,3.13
2023-03-21T18:29:43.980Z,5.93
2023-03-21T18:31:43.791Z,2.65
2023-03-21T18:34:15.200Z,3.13
2023-03-21T18:36:43.529Z,4.18
2023-03-21T18:39:13.298Z,2.67
2023-03-21T18:41:41.849Z,2.90
2023-03-21T18:44:17.344Z,4.00
2023-03-21T18:46:50.654Z,3.22
2023-03-21T18:50:02.110Z,3.72
2023-03-21T18:52:09.227Z,3.72
2023-03-21T18:54:37.787Z,3.53
2023-03-21T18:57:34.189Z,4.10
2023-03-21T18:59:57.955Z,4.85
2023-03-21T19:02:26.350Z,3.40
2023-03-21T19:04:57.887Z,3.38
2023-03-21T19:07:26.132Z,4.00
2023-03-21T19:10:15.947Z,3.00
2023-03-21T19:12:43.875Z,2.90
2023-03-21T19:15:13.276Z,3.42
2023-03-21T19:20:32.276Z,3.10
2023-03-21T19:23:00.649Z,3.03
2023-03-21T19:25:28.893Z,4.00
2023-03-21T19:27:57.401Z,3.17
2023-03-21T19:30:29.881Z,3.00
2023-03-21T19:32:58.188Z,2.80
2023-03-21T19:35:27.088Z,3.22
2023-03-21T19:37:56.866Z,2.97
2023-03-21T19:40:25.356Z,3.50
2023-03-21T19:42:53.803Z,3.25
2023-03-21T19:45:22.061Z,2.42
2023-03-21T19:47:50.204Z,3.08
2023-03-21T19:53:12.540Z,2.80
2023-03-21T19:55:41.247Z,3.30
2023-03-21T19:58:09.473Z,3.20
2023-03-21T20:00:38.153Z,3.47
2023-03-21T20:03:08.855Z,2.85
2023-03-21T20:05:37.294Z,3.33
2023-03-21T20:08:09.874Z,4.53
2023-03-21T20:10:40.950Z,3.63
2023-03-21T20:13:09.529Z,3.47
2023-03-21T20:15:45.943Z,3.35
2023-03-21T20:18:16.505Z,2.92
2023-03-21T20:20:44.742Z,3.80
2023-03-21T20:23:15.845Z,3.60
2023-03-21T20:25:49.154Z,3.10
2023-03-21T20:30:58.572Z,2.90
2023-03-21T20:33:26.890Z,3.03
2023-03-21T20:38:47.984Z,2.93
2023-03-21T20:41:21.122Z,3.63
2023-03-21T20:46:37.916Z,3.47
2023-03-21T20:49:07.459Z,2.83
2023-03-21T20:54:24.488Z,2.92
2023-03-21T20:56:53.934Z,3.33
2023-03-21T20:59:27.141Z,3.55
2023-03-21T21:01:56.157Z,3.60
2023-03-21T21:04:42.808Z,3.05
2023-03-21T21:07:16.250Z,3.72
2023-03-21T21:09:45.060Z,4.60
2023-03-21T21:12:19.151Z,3.35
2023-03-21T21:14:48.300Z,3.33
2023-03-21T21:17:34.042Z,3.15
2023-03-21T21:20:16.269Z,3.85
2023-03-21T21:22:56.919Z,3.90
2023-03-21T21:25:30.672Z,3.28
2023-03-21T21:28:01.771Z,3.38
2023-03-21T21:30:30.433Z,3.40
2023-03-21T21:33:00.796Z,3.50
2023-03-21T21:35:29.307Z,2.60
2023-03-21T21:37:57.828Z,3.03
2023-03-21T21:40:26.237Z,3.42
2023-03-21T21:42:54.469Z,3.90
2023-03-21T21:45:24.265Z,3.67
2023-03-21T21:47:52.627Z,3.30
2023-03-21T21:50:22.473Z,3.88
2023-03-21T21:52:54.373Z,4.13
2023-03-21T21:55:23.226Z,3.15
2023-03-21T21:57:58.412Z,3.42
2023-03-21T22:00:30.733Z,3.45
2023-03-21T22:03:00.177Z,4.00
2023-03-21T22:05:29.041Z,3.10
2023-03-21T22:07:57.308Z,4.53
2023-03-21T22:10:28.318Z,5.13
2023-03-21T22:12:56.387Z,4.22
2023-03-21T22:15:24.453Z,3.30
2023-03-21T22:17:55.015Z,3.25
2023-03-21T22:20:23.179Z,3.42
2023-03-21T22:22:51.332Z,4.28
2023-03-21T22:25:19.634Z,3.67
2023-03-21T22:27:47.655Z,3.47
2023-03-21T22:30:17.398Z,4.35
2023-03-21T22:32:56.362Z,3.95
2023-03-21T22:35:32.225Z,4.15
2023-03-21T22:38:00.759Z,4.30
2023-03-21T22:40:28.855Z,4.35
2023-03-21T22:42:56.964Z,4.70
2023-03-21T22:45:25.075Z,3.72
2023-03-21T22:47:53.457Z,4.55
2023-03-21T22:50:24.253Z,4.15
2023-03-21T22:52:53.842Z,4.78
2023-03-21T22:55:21.940Z,4.28
2023-03-21T22:57:50.080Z,4.22
2023-03-21T23:00:19.967Z,4.78
2023-03-21T23:02:48.094Z,5.13
2023-03-21T23:05:16.251Z,4.65
2023-03-21T23:07:44.269Z,5.28
2023-03-21T23:10:14.085Z,4.03
2023-03-21T23:12:42.204Z,5.20
2023-03-21T23:15:11.362Z,4.43
2023-03-21T23:17:39.494Z,4.38
2023-03-21T23:20:09.848Z,5.55
2023-03-21T23:22:38.505Z,4.57
2023-03-21T23:25:09.072Z,4.35
2023-03-21T23:27:40.177Z,5.32
2023-03-21T23:30:09.392Z,4.78
2023-03-21T23:32:52.995Z,4.82
2023-03-21T23:35:21.409Z,4.03
2023-03-21T23:37:52.493Z,4.22
2023-03-21T23:40:21.502Z,4.47
2023-03-21T23:42:50.932Z,4.35
2023-03-21T23:45:21.765Z,4.72
2023-03-21T23:47:49.984Z,4.60
2023-03-21T23:50:18.215Z,5.20
2023-03-21T23:52:46.397Z,4.10
2023-03-21T23:55:14.537Z,5.80
2023-03-21T23:57:43.845Z,4.20
